Time;durP1;ratioP1;P1;durP2;ratioP2;P2;SDS_P1;SDS_P2;PMS_P1;PMS_P2;Temp;Humidity;BMP_temperature;BMP_pressure;BME280_temperature;BME280_humidity;BME280_pressure;Samples;Min_cycle;Max_cycle;Signal;HPM_P1;HPM_P2
2022/11/13 00:03:07;;;;;;;9.65;7.53;;;;;;;-145.48;100.00;64539.38;6044040;29;20343;-94
2022/11/13 00:06:28;;;;;;;8.40;6.80;;;;;;;-145.48;100.00;64539.38;6034822;29;20077;-95
2022/11/13 00:09:49;;;;;;;10.60;8.18;;;;;;;-145.48;100.00;64539.38;6036207;29;20683;-95
2022/11/13 00:13:09;;;;;;;11.02;6.97;;;;;;;-145.48;100.00;64539.38;6059861;29;20044;-93
2022/11/13 00:16:29;;;;;;;9.93;6.85;;;;;;;-145.48;100.00;64539.38;6057889;29;20053;-93
2022/11/13 00:19:50;;;;;;;9.43;7.10;;;;;;;-145.48;100.00;64539.38;6047141;29;20092;-93
2022/11/13 00:23:10;;;;;;;10.13;7.10;;;;;;;-145.48;100.00;64539.38;6056516;29;20049;-93
2022/11/13 00:26:30;;;;;;;10.05;6.85;;;;;;;-145.48;100.00;64539.38;6044820;29;20046;-93
2022/11/13 00:29:51;;;;;;;9.23;6.05;;;;;;;-145.48;100.00;64539.38;6050095;29;20048;-94
2022/11/13 00:33:11;;;;;;;7.53;6.70;;;;;;;-145.48;100.00;64539.38;6050934;29;20054;-93
2022/11/13 00:36:41;;;;;;;15.48;7.35;;;;;;;-145.48;100.00;64539.38;6053373;29;20508;-94
2022/11/13 00:40:02;;;;;;;10.48;7.13;;;;;;;-145.48;100.00;64539.38;6064330;29;20056;-94
2022/11/13 00:43:22;;;;;;;9.45;7.05;;;;;;;-145.48;100.00;64539.38;6058968;29;20655;-94
2022/11/13 00:46:42;;;;;;;9.80;6.95;;;;;;;-145.48;100.00;64539.38;6056184;29;20061;-93
2022/11/13 00:50:03;;;;;;;9.95;7.38;;;;;;;-145.48;100.00;64539.38;6045250;29;20132;-94
2022/11/13 00:53:23;;;;;;;10.82;7.63;;;;;;;-145.48;100.00;64539.38;6064831;29;20053;-93
2022/11/13 00:56:44;;;;;;;9.38;7.13;;;;;;;-145.48;100.00;64539.38;6049159;29;20120;-93
2022/11/13 01:00:04;;;;;;;10.32;7.22;;;;;;;-145.48;100.00;64539.38;6041134;29;20069;-94
2022/11/13 01:03:24;;;;;;;10.05;6.82;;;;;;;-145.48;100.00;64539.38;6061921;29;20057;-93
2022/11/13 01:06:45;;;;;;;8.90;7.30;;;;;;;-145.48;100.00;64539.38;6050965;29;20508;-93
2022/11/13 01:10:06;;;;;;;9.75;6.85;;;;;;;-145.48;100.00;64539.38;6055410;29;20064;-93
2022/11/13 01:13:26;;;;;;;;;;;;;;;-145.48;100.00;64539.38;6044090;29;20080;-93
2022/11/13 01:16:46;;;;;;;9.90;6.60;;;;;;;-145.48;100.00;64539.38;6060401;29;19927;-93
2022/11/13 01:20:07;;;;;;;8.77;6.57;;;;;;;-145.48;100.00;64539.38;6059282;29;20057;-94
2022/11/13 01:23:27;;;;;;;;;;;;;;;-145.48;100.00;64539.38;6055320;29;20057;-93
2022/11/13 01:26:48;;;;;;;11.10;6.32;;;;;;;-145.48;100.00;64539.38;6041870;29;19923;-93
2022/11/13 01:30:09;;;;;;;9.75;6.50;;;;;;;-145.48;100.00;64539.38;6062311;29;20052;-94
2022/11/13 01:33:30;;;;;;;;;;;;;;;-145.48;100.00;64539.38;6049600;29;20065;-94
2022/11/13 01:36:50;;;;;;;9.30;6.10;;;;;;;-145.48;100.00;64539.38;6063840;29;19935;-93
2022/11/13 01:40:13;;;;;;;8.95;6.75;;;;;;;-145.48;100.00;64539.38;6056465;29;20065;-94
2022/11/13 01:43:36;;;;;;;8.68;6.82;;;;;;;-145.48;100.00;64539.38;6040736;29;20077;-93
2022/11/13 01:46:56;;;;;;;10.98;7.07;;;;;;;-145.48;100.00;64539.38;6045140;29;20053;-93
2022/11/13 01:50:17;;;;;;;7.90;6.63;;;;;;;-145.48;100.00;64539.38;6047907;29;20060;-93
2022/11/13 01:53:40;;;;;;;7.13;5.60;;;;;;;-145.48;100.00;64539.38;6047154;29;20452;-93
2022/11/13 01:57:03;;;;;;;9.48;6.78;;;;;;;-145.48;100.00;64539.38;6029619;29;20057;-94
2022/11/13 02:00:23;;;;;;;9.77;6.55;;;;;;;-145.48;100.00;64539.38;6046357;29;20060;-93
2022/11/13 02:03:44;;;;;;;9.75;6.53;;;;;;;-145.48;100.00;64539.38;6040873;29;20127;-93
2022/11/13 02:07:15;;;;;;;14.23;7.78;;;;;;;-145.48;100.00;64539.38;6044133;29;20511;-93
2022/11/13 02:10:36;;;;;;;11.05;7.32;;;;;;;-145.48;100.00;64539.38;6044248;29;20054;-92
2022/11/13 02:13:57;;;;;;;11.20;7.55;;;;;;;-145.48;100.00;64539.38;6047213;29;20049;-92
2022/11/13 02:17:31;;;;;;;11.70;7.97;;;;;;;-145.48;100.00;64539.38;6049404;29;20069;-93
2022/11/13 02:21:04;;;;;;;9.88;6.65;;;;;;;-145.48;100.00;64539.38;6048120;29;20057;-93
2022/11/13 02:24:44;;;;;;;12.07;7.55;;;;;;;-145.48;100.00;64539.38;6041764;29;20049;-92
2022/11/13 02:28:10;;;;;;;11.27;7.53;;;;;;;-145.48;100.00;64539.38;6041214;29;20077;-93
2022/11/13 02:31:30;;;;;;;10.80;6.82;;;;;;;-145.48;100.00;64539.38;6053381;29;20056;-93
2022/11/13 02:34:50;;;;;;;12.52;7.88;;;;;;;-145.48;100.00;64539.38;6055334;29;20056;-93
2022/11/13 02:38:10;;;;;;;11.85;7.40;;;;;;;-145.48;100.00;64539.38;6044657;29;20131;-92
2022/11/13 02:41:31;;;;;;;9.02;7.78;;;;;;;-145.48;100.00;64539.38;6056619;29;20198;-92
2022/11/13 02:44:51;;;;;;;8.75;6.78;;;;;;;-145.48;100.00;64539.38;6052888;29;20068;-93
2022/11/13 02:48:12;;;;;;;10.88;8.13;;;;;;;-145.48;100.00;64539.38;6054627;29;20045;-92
2022/11/13 02:51:32;;;;;;;11.88;8.35;;;;;;;-145.48;100.00;64539.38;6044155;29;20053;-93
2022/11/13 02:54:53;;;;;;;10.45;7.20;;;;;;;-145.48;100.00;64539.38;6045446;29;20444;-93
2022/11/13 02:58:13;;;;;;;10.77;7.65;;;;;;;-145.48;100.00;64539.38;6044287;29;20056;-93
2022/11/13 03:01:33;;;;;;;10.50;7.88;;;;;;;-145.48;100.00;64539.38;6047281;29;20048;-93
2022/11/13 03:04:54;;;;;;;10.40;7.80;;;;;;;-145.48;100.00;64539.38;6038550;29;20124;-93
2022/11/13 03:08:32;;;;;;;9.10;7.28;;;;;;;-145.48;100.00;64539.38;6036491;29;20053;-93
2022/11/13 03:11:54;;;;;;;10.23;7.20;;;;;;;-145.48;100.00;64539.38;6040939;29;20053;-93
2022/11/13 03:15:14;;;;;;;11.50;7.68;;;;;;;-145.48;100.00;64539.38;6052764;29;20052;-93
2022/11/13 03:18:35;;;;;;;11.02;7.78;;;;;;;-145.48;100.00;64539.38;6043815;29;20427;-92
2022/11/13 03:21:55;;;;;;;11.75;7.90;;;;;;;-145.48;100.00;64539.38;6051981;29;20053;-93
2022/11/13 03:25:15;;;;;;;11.73;7.53;;;;;;;-145.48;100.00;64539.38;6036944;29;20053;-93
2022/11/13 03:28:36;;;;;;;11.70;7.50;;;;;;;-145.48;100.00;64539.38;6051255;29;20056;-93
2022/11/13 03:31:57;;;;;;;10.30;7.45;;;;;;;-145.48;100.00;64539.38;6046317;29;20065;-93
2022/11/13 03:35:17;;;;;;;10.32;7.75;;;;;;;-145.48;100.00;64539.38;6044877;29;20478;-92
2022/11/13 03:38:38;;;;;;;10.90;7.43;;;;;;;-145.48;100.00;64539.38;6038301;29;20053;-93
2022/11/13 03:41:58;;;;;;;9.35;7.00;;;;;;;-145.48;100.00;64539.38;6033209;29;20127;-92
2022/11/13 03:45:18;;;;;;;10.25;7.20;;;;;;;-145.48;100.00;64539.38;6054462;29;20053;-93
2022/11/13 03:48:39;;;;;;;10.88;7.28;;;;;;;-145.48;100.00;64539.38;6053997;29;20056;-93
2022/11/13 03:51:59;;;;;;;10.02;7.07;;;;;;;-145.48;100.00;64539.38;6041773;29;20159;-93
2022/11/13 03:55:19;;;;;;;9.23;6.57;;;;;;;-145.48;100.00;64539.38;6040553;29;20061;-92
2022/11/13 03:58:39;;;;;;;10.32;7.43;;;;;;;-145.48;100.00;64539.38;6055069;29;20558;-93
2022/11/13 04:02:04;;;;;;;10.88;7.13;;;;;;;-145.48;100.00;64539.38;6026792;29;20682;-93
2022/11/13 04:05:25;;;;;;;11.85;7.68;;;;;;;-145.48;100.00;64539.38;6062718;29;20052;-93
2022/11/13 04:08:46;;;;;;;9.75;6.38;;;;;;;-145.48;100.00;64539.38;6051553;29;20124;-93
2022/11/13 04:12:07;;;;;;;8.13;6.22;;;;;;;-145.48;100.00;64539.38;6044759;29;20171;-93
2022/11/13 04:15:27;;;;;;;10.20;6.30;;;;;;;-145.48;100.00;64539.38;6050688;29;20073;-93
2022/11/13 04:18:47;;;;;;;8.95;6.60;;;;;;;-145.48;100.00;64539.38;6053413;29;20407;-93
2022/11/13 04:22:07;;;;;;;8.67;6.50;;;;;;;-145.48;100.00;64539.38;6056566;29;20386;-93
2022/11/13 04:25:28;;;;;;;9.25;6.90;;;;;;;-145.48;100.00;64539.38;6060683;29;20682;-93
2022/11/13 04:28:48;;;;;;;8.43;6.20;;;;;;;-145.48;100.00;64539.38;6050966;29;20479;-93
2022/11/13 04:32:08;;;;;;;10.07;6.30;;;;;;;-145.48;100.00;64539.38;6047400;29;20207;-93
2022/11/13 04:35:29;;;;;;;9.35;6.47;;;;;;;-145.48;100.00;64539.38;6053696;29;20069;-93
2022/11/13 04:38:49;;;;;;;8.93;6.90;;;;;;;-145.48;100.00;64539.38;6053530;29;20052;-93
2022/11/13 04:45:51;;;;;;;10.07;6.90;;;;;;;-145.48;100.00;64539.38;6049634;29;20427;-93
2022/11/13 04:49:11;;;;;;;11.98;6.70;;;;;;;-145.48;100.00;64539.38;6058375;29;20044;-92
2022/11/13 04:52:32;;;;;;;8.48;6.70;;;;;;;-145.48;100.00;64539.38;6056240;29;20053;-93
2022/11/13 04:55:52;;;;;;;10.43;7.18;;;;;;;-145.48;100.00;64539.38;6036840;29;20057;-93
2022/11/13 04:59:12;;;;;;;10.38;7.32;;;;;;;-145.48;100.00;64539.38;6044830;29;20460;-93
2022/11/13 05:02:33;;;;;;;9.63;7.10;;;;;;;-145.48;100.00;64539.38;6041533;29;20523;-93
2022/11/13 05:06:04;;;;;;;11.55;7.13;;;;;;;-145.48;100.00;64539.38;6036897;29;20057;-93
2022/11/13 05:09:24;;;;;;;;;;;;;;;-145.48;100.00;64539.38;6044835;29;20085;-93
2022/11/13 05:12:44;;;;;;;11.90;7.55;;;;;;;-145.48;100.00;64539.38;6038207;29;19927;-92
2022/11/13 05:16:07;;;;;;;9.40;6.65;;;;;;;-145.48;100.00;64539.38;6036365;29;20072;-92
2022/11/13 05:19:27;;;;;;;10.20;7.50;;;;;;;-145.48;100.00;64539.38;6028888;29;20157;-92
2022/11/13 05:22:48;;;;;;;10.63;7.13;;;;;;;-145.48;100.00;64539.38;6027781;29;20053;-93
2022/11/13 05:26:11;;;;;;;11.75;7.18;;;;;;;-145.48;100.00;64539.38;6034351;29;20065;-93
2022/11/13 05:29:31;;;;;;;12.93;6.95;;;;;;;-145.48;100.00;64539.38;6036156;29;20057;-92
2022/11/13 05:32:51;;;;;;;9.90;7.38;;;;;;;-145.48;100.00;64539.38;6038187;29;20057;-93
2022/11/13 05:36:14;;;;;;;12.45;7.07;;;;;;;-145.48;100.00;64539.38;6035133;29;20427;-92
2022/11/13 05:39:35;;;;;;;9.80;6.70;;;;;;;-145.48;100.00;64539.38;6026944;29;20060;-93
2022/11/13 05:42:55;;;;;;;8.18;6.78;;;;;;;-145.48;100.00;64539.38;6066544;29;20048;-93
2022/11/13 05:46:24;;;;;;;11.73;6.28;;;;;;;-145.48;100.00;64539.38;6054114;29;20559;-93
2022/11/13 05:49:44;;;;;;;9.35;6.55;;;;;;;-145.48;100.00;64539.38;6035246;29;20477;-93
2022/11/13 05:53:05;;;;;;;8.93;6.50;;;;;;;-145.48;100.00;64539.38;6035808;29;20088;-93
2022/11/13 05:56:32;;;;;;;7.70;6.18;;;;;;;-145.48;100.00;64539.38;6037811;29;20132;-93
2022/11/13 05:59:53;;;;;;;8.10;6.65;;;;;;;-145.48;100.00;64539.38;6029035;29;20080;-93
2022/11/13 06:03:13;;;;;;;8.67;6.67;;;;;;;-145.48;100.00;64539.38;6048309;29;20057;-93
2022/11/13 06:06:34;;;;;;;10.30;6.38;;;;;;;-145.48;100.00;64539.38;6046187;29;20286;-93
2022/11/13 06:09:54;;;;;;;9.80;6.67;;;;;;;-145.48;100.00;64539.38;6033150;29;20058;-92
2022/11/13 06:13:14;;;;;;;8.48;6.50;;;;;;;-145.48;100.00;64539.38;6028708;29;20295;-93
2022/11/13 06:16:37;;;;;;;9.63;7.13;;;;;;;-145.48;100.00;64539.38;6033453;29;20050;-93
2022/11/13 06:19:57;;;;;;;9.68;6.97;;;;;;;-145.48;100.00;64539.38;6029021;29;20053;-92
2022/11/13 06:23:18;;;;;;;9.32;6.70;;;;;;;-145.48;100.00;64539.38;6031347;29;20065;-93
2022/11/13 06:26:38;;;;;;;9.23;6.47;;;;;;;-145.48;100.00;64539.38;6033581;29;20500;-93
2022/11/13 06:29:58;;;;;;;9.57;6.47;;;;;;;-145.48;100.00;64539.38;6036103;29;20044;-93
2022/11/13 06:33:19;;;;;;;10.80;6.50;;;;;;;-145.48;100.00;64539.38;6038678;29;20507;-93
2022/11/13 06:36:39;;;;;;;7.53;6.18;;;;;;;-145.48;100.00;64539.38;6031602;29;20104;-92
2022/11/13 06:40:00;;;;;;;8.57;6.63;;;;;;;-145.48;100.00;64539.38;6037300;29;20049;-93
2022/11/13 06:43:20;;;;;;;7.75;6.30;;;;;;;-145.48;100.00;64539.38;6035845;29;20057;-93
2022/11/13 06:46:40;;;;;;;9.65;6.22;;;;;;;-145.48;100.00;64539.38;6026335;29;20046;-93
2022/11/13 06:50:01;;;;;;;9.40;6.60;;;;;;;-145.48;100.00;64539.38;6030029;29;20136;-92
2022/11/13 06:53:21;;;;;;;10.45;6.63;;;;;;;-145.48;100.00;64539.38;6033772;29;20458;-92
2022/11/13 06:56:44;;;;;;;7.30;5.95;;;;;;;-145.48;100.00;64539.38;6036755;29;20555;-93
2022/11/13 07:00:05;;;;;;;9.27;6.40;;;;;;;-145.48;100.00;64539.38;6027078;29;20045;-93
2022/11/13 07:03:26;;;;;;;9.40;5.95;;;;;;;-145.48;100.00;64539.38;6032097;29;20559;-92
2022/11/13 07:06:46;;;;;;;9.45;6.30;;;;;;;-145.48;100.00;64539.38;6028483;29;20049;-93
2022/11/13 07:10:07;;;;;;;9.65;6.40;;;;;;;-145.48;100.00;64539.38;6028090;29;20052;-92
2022/11/13 07:13:27;;;;;;;10.02;6.28;;;;;;;-145.48;100.00;64539.38;6027446;29;20092;-93
2022/11/13 07:16:48;;;;;;;8.63;6.18;;;;;;;-145.48;100.00;64539.38;6034347;29;20065;-93
2022/11/13 07:20:29;;;;;;;7.88;6.00;;;;;;;-145.48;100.00;64539.38;6027598;29;20073;-93
2022/11/13 07:23:49;;;;;;;9.10;6.45;;;;;;;-145.48;100.00;64539.38;6036735;29;20049;-93
2022/11/13 07:27:10;;;;;;;8.38;6.53;;;;;;;-145.48;100.00;64539.38;6067571;29;20065;-93
2022/11/13 07:30:31;;;;;;;9.32;7.40;;;;;;;-145.48;100.00;64539.38;6051166;29;20076;-92
2022/11/13 07:33:51;;;;;;;9.88;6.90;;;;;;;-145.48;100.00;64539.38;6044279;29;20535;-92
2022/11/13 07:37:11;;;;;;;11.23;7.67;;;;;;;-145.48;100.00;64539.38;6057333;29;20060;-93
2022/11/13 07:40:32;;;;;;;8.82;6.88;;;;;;;-145.48;100.00;64539.38;6060618;29;20159;-93
2022/11/13 07:43:52;;;;;;;10.82;8.05;;;;;;;-145.48;100.00;64539.38;6049085;29;20049;-92
2022/11/13 07:47:13;;;;;;;10.80;7.55;;;;;;;-145.48;100.00;64539.38;6039672;29;20088;-93
2022/11/13 07:50:35;;;;;;;10.80;6.75;;;;;;;-145.48;100.00;64539.38;6048549;29;20053;-93
2022/11/13 07:53:55;;;;;;;11.50;6.97;;;;;;;-145.48;100.00;64539.38;6054425;29;20044;-92
2022/11/13 07:57:16;;;;;;;12.57;7.38;;;;;;;-145.48;100.00;64539.38;6048891;29;20045;-93
2022/11/13 08:00:37;;;;;;;15.10;8.03;;;;;;;-145.48;100.00;64539.38;6058852;29;20049;-93
2022/11/13 08:03:58;;;;;;;13.23;8.85;;;;;;;-145.48;100.00;64539.38;6053557;29;20781;-93
2022/11/13 08:07:18;;;;;;;14.18;8.80;;;;;;;-145.48;100.00;64539.38;6053852;29;20064;-94
2022/11/13 08:10:39;;;;;;;12.73;9.15;;;;;;;-145.48;100.00;64539.38;6065451;29;20068;-94
2022/11/13 08:14:00;;;;;;;;;;;;;;;-145.48;100.00;64539.38;6051329;29;20054;-94
2022/11/13 08:17:20;;;;;;;11.75;8.70;;;;;;;-145.48;100.00;64539.38;6056099;29;20418;-94
2022/11/13 08:20:40;;;;;;;14.90;9.85;;;;;;;-145.48;100.00;64539.38;6039809;29;20354;-93
2022/11/13 08:24:01;;;;;;;14.30;9.48;;;;;;;-145.48;100.00;64539.38;6044923;29;20377;-94
2022/11/13 08:27:22;;;;;;;14.77;9.55;;;;;;;-145.48;100.00;64539.38;6060151;29;20473;-94
2022/11/13 08:30:43;;;;;;;14.35;9.88;;;;;;;-145.48;100.00;64539.38;6060326;29;20050;-93
2022/11/13 08:34:04;;;;;;;13.45;9.45;;;;;;;-145.48;100.00;64539.38;6043445;29;20296;-94
2022/11/13 08:37:24;;;;;;;12.18;8.93;;;;;;;-145.48;100.00;64539.38;6031176;29;20045;-94
2022/11/13 08:40:45;;;;;;;14.73;9.43;;;;;;;-145.48;100.00;64539.38;6046357;29;20048;-94
2022/11/13 08:44:05;;;;;;;15.90;9.18;;;;;;;-145.48;100.00;64539.38;6038400;29;20092;-93
2022/11/13 08:47:27;;;;;;;12.23;8.85;;;;;;;-145.48;100.00;64539.38;6038728;29;20641;-94
2022/11/13 08:50:53;;;;;;;15.27;9.55;;;;;;;-145.48;100.00;64539.38;6031405;29;20049;-94
2022/11/13 08:54:14;;;;;;;13.95;8.90;;;;;;;-145.48;100.00;64539.38;6041200;29;20101;-94
2022/11/13 08:57:34;;;;;;;12.45;9.15;;;;;;;-145.48;100.00;64539.38;6039387;29;20052;-93
2022/11/13 09:01:02;;;;;;;15.52;9.05;;;;;;;-145.48;100.00;64539.38;6032995;29;20051;-93
2022/11/13 09:04:24;;;;;;;14.18;8.93;;;;;;;-145.48;100.00;64539.38;6028643;29;20527;-93
2022/11/13 09:07:44;;;;;;;13.30;9.43;;;;;;;-145.48;100.00;64539.38;6032379;29;20466;-94
2022/11/13 09:11:05;;;;;;;16.95;9.52;;;;;;;-145.48;100.00;64539.38;6037561;29;20045;-94
2022/11/13 09:14:26;;;;;;;13.13;9.27;;;;;;;-145.48;100.00;64539.38;6034420;29;20045;-93
2022/11/13 09:17:47;;;;;;;13.95;8.68;;;;;;;-145.48;100.00;64539.38;6036172;29;20049;-94
2022/11/13 09:21:07;;;;;;;13.48;9.27;;;;;;;-145.48;100.00;64539.38;6030917;29;20251;-94
2022/11/13 09:24:28;;;;;;;12.95;8.45;;;;;;;-145.48;100.00;64539.38;6031904;29;20049;-93
2022/11/13 09:27:59;;;;;;;14.07;9.45;;;;;;;-145.48;100.00;64539.38;6032970;29;20081;-94
2022/11/13 09:31:21;;;;;;;16.48;10.18;;;;;;;-145.48;100.00;64539.38;6029823;29;20065;-93
2022/11/13 09:34:41;;;;;;;14.98;9.85;;;;;;;-145.48;100.00;64539.38;6040145;29;20072;-94
2022/11/13 09:38:10;;;;;;;13.18;10.38;;;;;;;-145.48;100.00;64539.38;6036430;29;20053;-94
2022/11/13 09:41:46;;;;;;;18.92;12.77;;;;;;;-145.48;100.00;64539.38;6011412;29;20053;-93
2022/11/13 09:45:11;;;;;;;20.05;13.13;;;;;;;-145.48;100.00;64539.38;6043473;29;20049;-94
2022/11/13 09:48:42;;;;;;;18.55;12.35;;;;;;;-145.48;100.00;64539.38;6045141;29;20056;-94
2022/11/13 09:52:13;;;;;;;19.65;13.35;;;;;;;-145.48;100.00;64539.38;6037619;29;20053;-93
2022/11/13 09:55:40;;;;;;;;;;;;;;;-145.48;100.00;64539.38;6038524;29;20061;-93
2022/11/13 09:59:22;;;;;;;19.35;12.85;;;;;;;-145.48;100.00;64539.38;6052456;29;19928;-94
2022/11/13 10:03:09;;;;;;;20.45;13.35;;;;;;;-145.48;100.00;64539.38;6040663;29;20621;-93
2022/11/13 10:06:41;;;;;;;20.50;12.88;;;;;;;-145.48;100.00;64539.38;6044856;29;20115;-93
2022/11/13 10:10:18;;;;;;;20.35;13.38;;;;;;;-145.48;100.00;64539.38;6044585;29;20682;-93
2022/11/13 10:13:46;;;;;;;22.83;13.57;;;;;;;-145.48;100.00;64539.38;6032805;29;20049;-94
2022/11/13 10:17:11;;;;;;;20.00;13.77;;;;;;;-145.48;100.00;64539.38;6029144;29;20057;-93
2022/11/13 10:20:47;;;;;;;20.27;13.82;;;;;;;-145.48;100.00;64539.38;6026501;29;20413;-91
2022/11/13 10:24:17;;;;;;;21.65;13.30;;;;;;;-145.48;100.00;64539.38;6037539;29;20045;-92
2022/11/13 10:27:38;;;;;;;18.23;12.27;;;;;;;-145.48;100.00;64539.38;6031918;29;20045;-89
2022/11/13 10:30:59;;;;;;;19.55;13.07;;;;;;;-145.48;100.00;64539.38;6028896;29;20076;-92
2022/11/13 10:34:20;;;;;;;19.38;13.00;;;;;;;-145.48;100.00;64539.38;6037200;29;20093;-91
2022/11/13 10:37:59;;;;;;;20.33;13.15;;;;;;;-145.48;100.00;64539.38;6032453;29;20057;-89
2022/11/13 10:41:27;;;;;;;22.33;13.38;;;;;;;-145.48;100.00;64539.38;6023645;29;20053;-90
2022/11/13 10:44:57;;;;;;;20.50;12.95;;;;;;;-145.48;100.00;64539.38;6027210;29;20053;-90
2022/11/13 10:48:37;;;;;;;20.02;12.85;;;;;;;-145.48;100.00;64539.38;6026280;29;20058;-91
2022/11/13 10:52:01;;;;;;;20.00;11.97;;;;;;;-145.48;100.00;64539.38;6038901;29;20568;-90
2022/11/13 10:55:33;;;;;;;20.58;12.65;;;;;;;-145.48;100.00;64539.38;6048376;29;20064;-89
2022/11/13 10:59:12;;;;;;;17.17;12.05;;;;;;;-145.48;100.00;64539.38;6038596;29;20045;-90
2022/11/13 11:02:34;;;;;;;21.27;12.80;;;;;;;-145.48;100.00;64539.38;6022839;29;20469;-90
2022/11/13 11:05:57;;;;;;;20.55;12.13;;;;;;;-145.48;100.00;64539.38;6027888;29;20160;-90
2022/11/13 11:09:30;;;;;;;20.08;13.32;;;;;;;-145.48;100.00;64539.38;6025548;29;20460;-89
2022/11/13 11:13:02;;;;;;;25.05;14.52;;;;;;;-145.48;100.00;64539.38;6026768;29;20632;-90
2022/11/13 11:16:29;;;;;;;24.92;15.35;;;;;;;-145.48;100.00;64539.38;6032117;29;20080;-90
2022/11/13 11:20:22;;;;;;;23.67;15.90;;;;;;;-145.48;100.00;64539.38;6020302;29;20057;-90
2022/11/13 11:24:08;;;;;;;26.05;15.85;;;;;;;-145.48;100.00;64539.38;6022511;29;20076;-90
2022/11/13 11:27:36;;;;;;;28.23;15.50;;;;;;;-145.48;100.00;64539.38;6029418;29;20085;-90
2022/11/13 11:31:20;;;;;;;26.65;15.50;;;;;;;-145.48;100.00;64539.38;6032432;29;20060;-90
2022/11/13 11:34:54;;;;;;;24.52;14.57;;;;;;;-145.48;100.00;64539.38;6022620;29;20061;-90
2022/11/13 11:38:25;;;;;;;25.33;15.13;;;;;;;-145.48;100.00;64539.38;6020216;29;20805;-90
2022/11/13 11:42:24;;;;;;;22.92;14.07;;;;;;;-145.48;100.00;64539.38;6028443;29;20418;-90
2022/11/13 11:45:47;;;;;;;;;;;;;;;-145.48;100.00;64539.38;6021596;29;20057;-90
2022/11/13 11:49:09;;;;;;;24.23;14.57;;;;;;;-145.48;100.00;64539.38;6020733;29;20390;-90
2022/11/13 11:52:36;;;;;;;28.25;15.85;;;;;;;-145.48;100.00;64539.38;6025461;29;20153;-90
2022/11/13 11:56:07;;;;;;;26.38;14.55;;;;;;;-145.48;100.00;64539.38;6029152;29;20053;-90
2022/11/13 11:59:50;;;;;;;24.85;15.23;;;;;;;-145.48;100.00;64539.38;6021990;29;20049;-90
2022/11/13 12:03:48;;;;;;;25.15;14.77;;;;;;;-145.48;100.00;64539.38;6026123;29;21127;-90
2022/11/13 12:07:36;;;;;;;25.13;14.40;;;;;;;-145.48;100.00;64539.38;6029529;29;20049;-90
2022/11/13 12:11:10;;;;;;;24.67;14.95;;;;;;;-145.48;100.00;64539.38;6029106;29;20370;-90
2022/11/13 12:15:01;;;;;;;28.77;15.30;;;;;;;-145.48;100.00;64539.38;6033458;29;20057;-89
2022/11/13 12:18:43;;;;;;;26.70;14.98;;;;;;;-145.48;100.00;64539.38;6027919;29;20499;-90
2022/11/13 12:22:42;;;;;;;26.58;15.13;;;;;;;-145.48;100.00;64539.38;6026508;29;20053;-90
2022/11/13 12:26:30;;;;;;;27.00;15.48;;;;;;;-145.48;100.00;64539.38;6036844;29;20049;-90
2022/11/13 12:30:15;;;;;;;27.10;15.80;;;;;;;-145.48;100.00;64539.38;6046006;29;20132;-90
2022/11/13 12:33:44;;;;;;;28.80;16.48;;;;;;;-145.48;100.00;64539.38;6041586;29;20049;-89
2022/11/13 12:37:12;;;;;;;30.98;16.33;;;;;;;-145.48;100.00;64539.38;6037396;29;20060;-90
2022/11/13 12:40:39;;;;;;;29.33;16.08;;;;;;;-145.48;100.00;64539.38;6036343;29;20090;-90
2022/11/13 12:44:27;;;;;;;31.35;17.17;;;;;;;-145.48;100.00;64539.38;6044246;29;20053;-89
2022/11/13 12:47:50;;;;;;;32.33;17.23;;;;;;;-145.48;100.00;64539.38;6050110;29;20049;-89
2022/11/13 12:51:18;;;;;;;30.65;16.83;;;;;;;-145.48;100.00;64539.38;6038582;29;20290;-89
2022/11/13 12:54:40;;;;;;;30.92;16.67;;;;;;;-145.48;100.00;64539.38;6037968;29;20436;-89
2022/11/13 12:58:25;;;;;;;30.88;17.20;;;;;;;-145.48;100.00;64539.38;6039692;29;20475;-89
2022/11/13 13:02:06;;;;;;;34.60;17.73;;;;;;;-145.48;100.00;64539.38;6038243;29;20045;-89
2022/11/13 13:06:03;;;;;;;34.33;18.83;;;;;;;-145.48;100.00;64539.38;6041407;29;20049;-89
2022/11/13 13:09:52;;;;;;;31.92;19.00;;;;;;;-145.48;100.00;64539.38;6040661;29;20426;-89
2022/11/13 13:13:53;;;;;;;34.53;18.92;;;;;;;-145.48;100.00;64539.38;6040312;29;20065;-89
2022/11/13 13:17:14;;;;;;;30.45;18.20;;;;;;;-145.48;100.00;64539.38;6042941;29;20060;-90
2022/11/13 13:20:38;;;;;;;33.03;19.08;;;;;;;-145.48;100.00;64539.38;6040968;29;20053;-90
2022/11/13 13:24:07;;;;;;;29.73;17.45;;;;;;;-145.48;100.00;64539.38;6033651;29;20140;-90
2022/11/13 13:27:33;;;;;;;32.70;18.23;;;;;;;-145.48;100.00;64539.38;6044058;29;20053;-90
2022/11/13 13:31:27;;;;;;;29.60;17.98;;;;;;;-145.48;100.00;64539.38;6041504;29;20080;-90
2022/11/13 13:35:18;;;;;;;31.67;18.02;;;;;;;-145.48;100.00;64539.38;5993088;29;20619;-90
2022/11/13 13:39:18;;;;;;;32.85;18.23;;;;;;;-145.48;100.00;64539.38;5992308;29;20089;-90
2022/11/13 13:42:41;;;;;;;28.95;17.85;;;;;;;-145.48;100.00;64539.38;5952092;29;20054;-90
2022/11/13 13:46:21;;;;;;;32.22;18.77;;;;;;;-145.48;100.00;64539.38;5953668;29;20438;-89
2022/11/13 13:49:43;;;;;;;32.05;18.63;;;;;;;-145.48;100.00;64539.38;5946212;29;20475;-89
2022/11/13 13:53:05;;;;;;;32.00;18.67;;;;;;;-145.48;100.00;64539.38;5953304;29;20047;-89
2022/11/13 13:56:26;;;;;;;31.58;17.48;;;;;;;-145.48;100.00;64539.38;5954119;29;20451;-89
2022/11/13 13:59:48;;;;;;;;;;;;;;;-145.48;100.00;64539.38;5951675;29;20524;-89
2022/11/13 14:03:19;;;;;;;34.83;19.27;;;;;;;-145.48;100.00;64539.38;5952652;29;20491;-89
2022/11/13 14:06:54;;;;;;;34.83;18.95;;;;;;;-145.48;100.00;64539.38;5956078;29;20050;-89
2022/11/13 14:10:19;;;;;;;29.02;17.95;;;;;;;-145.48;100.00;64539.38;5952939;29;20148;-89
2022/11/13 14:13:40;;;;;;;36.17;19.13;;;;;;;-145.48;100.00;64539.38;5967259;29;20138;-89
2022/11/13 14:17:02;;;;;;;34.15;17.60;;;;;;;-145.48;100.00;64539.38;5970943;29;20046;-89
2022/11/13 14:20:24;;;;;;;34.38;18.85;;;;;;;-145.48;100.00;64539.38;6035400;29;20056;-89
2022/11/13 14:23:47;;;;;;;36.17;18.98;;;;;;;-145.48;100.00;64539.38;6048227;29;20082;-89
2022/11/13 14:27:14;;;;;;;33.70;18.38;;;;;;;-145.48;100.00;64539.38;6038190;29;20496;-88
2022/11/13 14:30:35;;;;;;;40.13;18.52;;;;;;;-145.48;100.00;64539.38;6040205;29;20412;-91
2022/11/13 14:33:58;;;;;;;35.63;19.02;;;;;;;-145.48;100.00;64539.38;6049368;29;20057;-89
2022/11/13 14:37:35;;;;;;;30.25;17.17;;;;;;;-145.48;100.00;64539.38;6039910;29;20147;-88
2022/11/13 14:40:57;;;;;;;34.55;17.45;;;;;;;-145.48;100.00;64539.38;6038523;29;20053;-88
2022/11/13 14:44:25;;;;;;;31.95;16.92;;;;;;;-145.48;100.00;64539.38;6038273;29;20045;-89
2022/11/13 14:48:19;;;;;;;36.55;18.65;;;;;;;-145.48;100.00;64539.38;6044204;29;20061;-88
2022/11/13 14:51:40;;;;;;;30.17;16.42;;;;;;;-145.48;100.00;64539.38;6040550;29;20052;-89
2022/11/13 14:55:03;;;;;;;33.45;17.13;;;;;;;-145.48;100.00;64539.38;6037572;29;20049;-89
2022/11/13 14:58:46;;;;;;;34.67;17.77;;;;;;;-145.48;100.00;64539.38;6039223;29;20128;-90
2022/11/13 15:02:11;;;;;;;33.20;18.10;;;;;;;-145.48;100.00;64539.38;6037476;29;20052;-90
2022/11/13 15:05:31;;;;;;;33.38;16.80;;;;;;;-145.48;100.00;64539.38;6050750;29;20048;-91
2022/11/13 15:08:57;;;;;;;31.63;17.42;;;;;;;-145.48;100.00;64539.38;6043602;29;20085;-91
2022/11/13 15:12:17;;;;;;;34.20;17.48;;;;;;;-145.48;100.00;64539.38;6051708;29;20053;-90
2022/11/13 15:15:39;;;;;;;38.22;18.10;;;;;;;-145.48;100.00;64539.38;6035989;29;20054;-92
2022/11/13 15:31:46;;;;;;;33.63;16.52;;;;;;;-145.48;100.00;64539.38;6032639;29;20053;-92
2022/11/13 15:35:13;;;;;;;35.03;18.45;;;;;;;-145.48;100.00;64539.38;6028744;29;20061;-92
2022/11/13 15:38:33;;;;;;;34.83;17.15;;;;;;;-145.48;100.00;64539.38;6022921;29;20049;-92
2022/11/13 15:41:54;;;;;;;37.83;18.70;;;;;;;-145.48;100.00;64539.38;6027775;29;20053;-92